Калабино

Карта отелей и гостиниц, располагающихся рядом с аэропортом Калабино :

Калабино Липецкая область 52° 18' 25.4988" N, 38° 48' 40.5" E
Код аэродрома ИКАО
ZA0X
Код аэродрома RU
ЗА0Ь
Координаты
N52.30708° E038.81125°
Превышение над уровнем моря
193
Основная полоса
18/36
Курс магнитный
178,8/358,8
Длина основной ВПП
400
Ширина основной ВПП
20
Покрытие основной ВПП
Твёрдое (асфальт)
Освещение ВПП
Нет
Тип: 
Аэродром
Класс аэродрома: 
Принадлежность: 
Статус: 
Недействующий
Сайт: 
E-mail аэродрома: 
Страна: 
Россия
Регион: 
Липецкая область
Город: 
Дополнительная информация: 
Площадка АХР. По состоянию на август 2015 ИВПП заросла травой, для посадки самолетов не пригодна.

Найти трансфер

С помощью этой формы Вы можете найти трансфер из аэропорта Калабино в город, аэропорт или вокзал:

Карта места

Javascript is required to view this map.

Погода в аэропортах:

Авиационная погода в Ханты-Мансийске

Регион: 
Погода METAR: 
USHH 281300Z 15002MPS 9999 -SN SCT008 M04/M04 Q1020 R06/450332 NOSIG
Время наблюдения
2021-11-28T13:00:00Z
Температура C
-4.0
Точка росы
-4.0
Направление ветра
150
Скорость ветра (узлы)
4
Метео видимость
6.21
Явления погоды
-SN
Условия полета
VFR
Аэропорт подробнее: 

Авиационная погода в Емельяново

Регион: 
Погода METAR: 
UNKL 281300Z 25007MPS 6000 -SHSN SCT041CB M05/M08 Q1026 R29/810245 NOSIG RMK QFE743
Время наблюдения
2021-11-28T13:00:00Z
Температура C
-5.0
Точка росы
-8.0
Направление ветра
250
Скорость ветра (узлы)
14
Метео видимость
3.73
Явления погоды
-SHSN
Условия полета
MVFR
Аэропорт подробнее: 

Авиационная погода в Алматы

Регион: 
Погода METAR: 
UAAA 281400Z 20002MPS 1200 R05L/P2000 R05R/P2000 BR FU FEW200 M03/M06 Q1026 NOSIG
Время наблюдения
2021-11-28T14:00:00Z
Температура C
-3.0
Точка росы
-6.0
Направление ветра
200
Скорость ветра (узлы)
4
Метео видимость
0.75
Явления погоды
FU BR
Условия полета
LIFR
Аэропорт подробнее: 

Авиационная погода в Ровно

Регион: 
Погода METAR: 
UKLR 281400Z VRB01MPS 6000 -RA OVC026 04/04 Q0997 NOSIG
Время наблюдения
2021-11-28T14:00:00Z
Температура C
4.0
Точка росы
4.0
Направление ветра
0
Скорость ветра (узлы)
2
Метео видимость
3.73
Явления погоды
-RA
Условия полета
MVFR
Аэропорт подробнее: